createdAt,value
2022-11-28T00:45:39.730Z,27.50
2022-11-28T06:02:18.751Z,25.05
2022-11-28T06:04:46.343Z,25.25
2022-11-28T06:07:15.906Z,26.98
2022-11-28T06:09:45.733Z,27.60
2022-11-28T06:12:17.231Z,24.30
2022-11-28T06:56:53.931Z,32.80
2022-11-28T07:12:42.797Z,31.20
2022-11-28T07:23:44.039Z,31.52
2022-11-28T07:39:29.912Z,31.00
2022-11-28T07:50:28.703Z,30.88
2022-11-28T08:05:43.307Z,33.65
2022-11-28T08:08:10.685Z,31.02
2022-11-28T08:10:38.135Z,27.35
2022-11-28T08:35:25.188Z,29.50
2022-11-28T08:40:19.850Z,29.52
2022-11-28T08:42:47.216Z,30.35
2022-11-28T08:45:16.284Z,29.67
2022-11-28T08:47:44.008Z,39.35
2022-11-28T08:54:29.733Z,35.08
2022-11-28T08:56:58.980Z,31.05
2022-11-28T08:59:30.227Z,34.40
2022-11-28T09:01:58.639Z,29.08
2022-11-28T09:04:26.210Z,35.08
2022-11-28T09:06:53.926Z,30.23
2022-11-28T09:09:21.922Z,34.15
2022-11-28T09:11:49.365Z,35.53
2022-11-28T09:14:17.058Z,31.88
2022-11-28T09:16:44.546Z,32.70
2022-11-28T09:19:12.177Z,32.83
2022-11-28T09:21:40.719Z,31.52
2022-11-28T09:24:08.907Z,30.92
2022-11-28T09:26:36.751Z,30.70
2022-11-28T09:29:04.249Z,32.38
2022-11-28T09:31:31.684Z,30.17
2022-11-28T09:33:59.232Z,29.33
2022-11-28T09:36:28.506Z,35.08
2022-11-28T09:38:55.997Z,33.42
2022-11-28T09:41:42.229Z,32.95
2022-11-28T09:44:22.314Z,33.05
2022-11-28T09:46:55.853Z,32.42
2022-11-28T09:49:45.717Z,33.13
2022-11-28T09:52:35.346Z,34.05
2022-11-28T09:55:35.806Z,35.45
2022-11-28T09:58:36.672Z,35.42
2022-11-28T10:01:26.795Z,35.55
2022-11-28T10:04:09.474Z,35.33
2022-11-28T10:06:45.439Z,33.03
2022-11-28T10:09:39.949Z,36.58
2022-11-28T10:12:34.290Z,31.10
2022-11-28T10:15:04.700Z,32.85
2022-11-28T10:17:54.751Z,34.28
2022-11-28T10:20:24.370Z,38.08
2022-11-28T10:23:03.080Z,34.60
2022-11-28T10:25:43.390Z,36.55
2022-11-28T10:28:16.056Z,32.85
2022-11-28T10:30:48.156Z,40.65
2022-11-28T10:33:27.462Z,37.28
2022-11-28T10:36:02.627Z,34.45
2022-11-28T10:38:34.182Z,33.47
2022-11-28T10:41:37.075Z,41.25
2022-11-28T10:44:23.500Z,39.10
2022-11-28T10:47:01.877Z,37.13
2022-11-28T10:49:47.752Z,34.92
2022-11-28T10:52:21.686Z,37.33
2022-11-28T10:55:20.134Z,37.53
2022-11-28T10:58:09.332Z,36.92
2022-11-28T11:00:37.523Z,33.03
2022-11-28T11:03:06.016Z,39.00
2022-11-28T11:05:35.579Z,37.15
2022-11-28T11:08:08.916Z,31.73
2022-11-28T11:10:49.301Z,39.45
2022-11-28T11:13:21.421Z,36.28
2022-11-28T11:15:51.908Z,29.48
2022-11-28T11:18:27.982Z,34.78
2022-11-28T11:21:18.378Z,37.25
2022-11-28T11:23:46.485Z,34.65
2022-11-28T11:26:24.020Z,38.13
2022-11-28T11:28:52.376Z,33.38
2022-11-28T11:31:28.419Z,37.63
2022-11-28T11:34:03.405Z,34.75
2022-11-28T11:36:36.332Z,31.70
2022-11-28T11:39:06.984Z,36.70
2022-11-28T11:41:34.799Z,31.63
2022-11-28T11:44:14.617Z,36.17
2022-11-28T11:46:51.419Z,31.65
2022-11-28T11:49:49.042Z,34.80
2022-11-28T11:52:26.768Z,29.25
2022-11-28T11:54:57.256Z,32.67
2022-11-28T11:57:37.445Z,30.10
2022-11-28T12:00:07.359Z,25.98
2022-11-28T12:02:45.286Z,30.20
2022-11-28T12:05:21.985Z,29.33
2022-11-28T12:08:00.263Z,31.65
2022-11-28T12:10:31.230Z,26.67
2022-11-28T12:12:58.608Z,26.35
2022-11-28T12:15:47.716Z,28.05
2022-11-28T12:18:53.844Z,29.77
2022-11-28T12:21:39.968Z,32.78
2022-11-28T12:26:45.134Z,28.35
2022-11-28T12:29:12.599Z,30.85
2022-11-28T12:31:55.442Z,27.55
2022-11-28T12:34:41.394Z,28.15
2022-11-28T12:38:12.178Z,30.20
2022-11-28T12:41:01.425Z,25.60
2022-11-28T12:43:28.845Z,30.85
2022-11-28T12:46:05.289Z,27.35
2022-11-28T12:48:58.616Z,24.52
2022-11-28T12:51:34.267Z,29.85
2022-11-28T12:56:54.645Z,31.20
2022-11-28T12:59:27.585Z,30.40
2022-11-28T13:02:18.004Z,32.90
2022-11-28T13:05:10.670Z,33.95
2022-11-28T13:08:15.291Z,35.08
2022-11-28T13:10:50.693Z,43.53
2022-11-28T13:13:41.316Z,36.88
2022-11-28T13:16:26.671Z,34.50
2022-11-28T13:19:00.531Z,36.60
2022-11-28T13:21:37.071Z,35.28
2022-11-28T13:24:26.056Z,38.35
2022-11-28T13:27:32.524Z,41.95
2022-11-28T13:30:20.367Z,37.45
2022-11-28T13:33:00.015Z,40.47
2022-11-28T13:35:28.654Z,38.00
2022-11-28T13:38:47.178Z,40.47
2022-11-28T13:41:43.867Z,40.33
2022-11-28T13:44:28.677Z,40.15
2022-11-28T13:46:56.797Z,36.17
2022-11-28T13:49:26.496Z,40.70
2022-11-28T13:52:18.849Z,42.65
2022-11-28T13:54:55.625Z,42.72
2022-11-28T13:57:39.284Z,42.63
2022-11-28T14:00:25.254Z,36.47
2022-11-28T14:02:55.052Z,44.88
2022-11-28T14:05:34.949Z,46.60
2022-11-28T14:08:04.201Z,42.78
2022-11-28T14:10:38.220Z,41.05
2022-11-28T14:13:28.147Z,44.78
2022-11-28T14:16:01.260Z,39.35
2022-11-28T14:19:10.339Z,49.25
2022-11-28T14:21:40.977Z,39.75
2022-11-28T14:24:27.141Z,42.30
2022-11-28T14:29:35.310Z,48.83
2022-11-28T14:34:50.947Z,44.70
2022-11-28T14:37:21.490Z,40.35
2022-11-28T14:39:49.928Z,40.80
2022-11-28T14:42:44.157Z,41.92
2022-11-28T14:54:44.362Z,41.88
2022-11-28T15:09:49.986Z,45.47
2022-11-28T15:30:04.918Z,47.78
2022-11-28T15:46:26.880Z,43.15
2022-11-28T15:57:43.859Z,44.85
2022-11-28T16:00:15.841Z,39.53
2022-11-28T16:02:44.339Z,43.72
2022-11-28T16:05:16.150Z,46.55
2022-11-28T16:07:44.525Z,45.58
2022-11-28T16:10:25.132Z,43.95
2022-11-28T16:13:01.217Z,48.15
2022-11-28T16:37:34.928Z,41.60
2022-11-28T16:48:38.749Z,49.10
2022-11-28T16:51:11.652Z,47.83
2022-11-28T17:10:46.281Z,47.15
2022-11-28T17:17:39.006Z,51.97
2022-11-28T17:20:07.057Z,53.97
2022-11-28T17:22:59.978Z,50.30
2022-11-28T17:25:27.446Z,55.47
2022-11-28T17:27:54.934Z,55.10
2022-11-28T17:30:22.488Z,52.50
2022-11-28T17:37:40.885Z,50.92
2022-11-28T20:41:54.894Z,50.85
2022-11-28T23:04:06.507Z,43.28
2022-11-28T23:15:52.889Z,40.58
2022-11-28T23:22:51.635Z,36.70
2022-11-28T23:30:10.316Z,40.15
